| time (UTC) | temp C | wind direction | speed KPH | gust KPH | rain 1hr cm | rain 24hr cm | rain mn cm | humidity % | barometer mb |
| 20260906123056 | 22 | 95 | 0.0 | 0.0 | 0.00 | 0.46 | 0.46 | 89 | 1012.0 |
| 20260906121601 | 22 | 95 | 0.0 | 0.0 | 0.00 | 0.46 | 0.46 | 88 | 1011.9 |
| 20260906120055 | 21 | 252 | 0.0 | 0.0 | 0.00 | 0.46 | 0.46 | 89 | 1011.8 |
| 20260906114610 | 21 | 249 | 0.0 | 0.0 | 0.00 | 0.46 | 0.46 | 88 | 1011.7 |
| 20260906113057 | 21 | 249 | 0.0 | 0.0 | 0.00 | 0.46 | 0.46 | 88 | 1011.5 |
| 20260906111553 | 21 | 249 | 0.0 | 0.0 | 0.00 | 0.46 | 0.46 | 88 | 1011.5 |
| 20260906110053 | 21 | 249 | 0.0 | 0.0 | 0.00 | 0.46 | 0.46 | 88 | 1011.5 |
| 20260906104552 | 21 | 244 | 0.0 | 6.4 | 0.00 | 0.46 | 0.46 | 88 | 1011.5 |
| 20260906103051 | 21 | 239 | 0.0 | 3.2 | 0.00 | 0.46 | 0.46 | 88 | 1011.8 |
| 20260906101550 | 21 | 210 | 0.0 | 1.6 | 0.00 | 0.46 | 0.46 | 88 | 1011.4 |
| 20260906100048 | 22 | 210 | 0.0 | 3.2 | 0.00 | 0.46 | 0.46 | 88 | 1011.3 |
| 20260906094548 | 22 | 285 | 0.0 | 4.8 | 0.00 | 0.46 | 0.46 | 88 | 1011.4 |
| 20260906093046 | 22 | 283 | 4.8 | 9.7 | 0.05 | 0.46 | 0.46 | 88 | 1011.7 |
| 20260906091544 | 22 | 299 | 0.0 | 0.0 | 0.05 | 0.46 | 0.46 | 88 | 1011.6 |
| 20260906090044 | 22 | 261 | 0.0 | 4.8 | 0.05 | 0.46 | 0.46 | 87 | 1011.7 |
| 20260906084543 | 22 | 201 | 3.2 | 6.4 | 0.05 | 0.46 | 0.46 | 87 | 1012.0 |
| 20260906083043 | 22 | 163 | 0.0 | 17.7 | 0.00 | 0.41 | 0.41 | 87 | 1012.2 |
| 20260906081547 | 22 | 168 | 0.0 | 9.7 | 0.00 | 0.41 | 0.41 | 87 | 1012.2 |
| 20260906080042 | 22 | 278 | 3.2 | 19.3 | 0.36 | 0.41 | 0.41 | 87 | 1011.9 |
| 20260906074552 | 22 | 340 | 0.0 | 1.6 | 0.38 | 0.41 | 0.41 | 87 | 1011.6 |
| 20260906073038 | 22 | 70 | 0.0 | 0.0 | 0.41 | 0.41 | 0.41 | 87 | 1011.1 |
| 20260906071538 | 22 | 139 | 0.0 | 16.1 | 0.41 | 0.41 | 0.41 | 87 | 1011.5 |
| 20260906070033 | 23 | 343 | 0.0 | 6.4 | 0.05 | 0.05 | 0.05 | 86 | 1011.9 |
| 20260906064531 | 23 | 351 | 8.0 | 20.9 | 0.03 | 0.03 | 0.03 | 84 | 1011.8 |
| 20260906063030 | 23 | 87 | 1.6 | 25.7 | 0.00 | 0.00 | 0.00 | 83 | 1012.0 |
| 20260906061529 | 23 | 59 | 11.3 | 22.5 | 0.00 | 0.00 | 0.00 | 83 | 1012.3 |
| 20260906060028 | 24 | 110 | 9.7 | 25.7 | 0.00 | 0.00 | 0.00 | 82 | 1012.2 |
| 20260906054529 | 25 | 79 | 19.3 | 41.8 | 0.00 | 0.00 | 0.00 | 80 | 1012.4 |
| 20260906053023 | 24 | 65 | 12.9 | 22.5 | 0.00 | 0.00 | 0.00 | 84 | 1012.2 |
| 20260906051517 | 24 | 87 | 0.0 | 0.0 | 0.00 | 0.00 | 0.00 | 85 | 1011.2 |
| 20260906050030 | 24 | 87 | 0.0 | 0.0 | 0.00 | 0.00 | 0.00 | 85 | 1011.2 |
| 20260906044528 | 24 | 87 | 0.0 | 0.0 | 0.00 | 0.00 | 0.00 | 84 | 1011.2 |
| 20260906043014 | 24 | 87 | 0.0 | 0.0 | 0.00 | 0.00 | 0.00 | 84 | 1011.8 |
| 20260906041515 | 24 | 87 | 0.0 | 0.0 | 0.00 | 0.00 | 0.00 | 84 | 1011.8 |
| 20260906040023 | 25 | 87 | 0.0 | 0.0 | 0.00 | 0.00 | 0.00 | 83 | 1011.8 |
| 20260906034515 | 25 | 86 | 0.0 | 0.0 | 0.00 | 0.00 | 0.00 | 83 | 1011.8 |
| 20260906033030 | 25 | 180 | 0.0 | 0.0 | 0.00 | 0.00 | 0.00 | 83 | 1011.8 |
| 20260906031514 | 25 | 88 | 0.0 | 0.0 | 0.00 | 0.00 | 0.00 | 82 | 1011.8 |
| 20260906030014 | 25 | 55 | 0.0 | 0.0 | 0.00 | 0.00 | 0.00 | 82 | 1011.4 |
| 20260906024510 | 26 | 54 | 0.0 | 0.0 | 0.00 | 0.00 | 0.00 | 82 | 1011.3 |
| 20260906023011 | 26 | 180 | 1.6 | 9.7 | 0.00 | 0.00 | 0.00 | 81 | 1011.0 |
| 20260906021510 | 26 | 72 | 0.0 | 0.0 | 0.00 | 0.00 | 0.00 | 79 | 1010.5 |
| 20260906020009 | 27 | 72 | 0.0 | 0.0 | 0.00 | 0.00 | 0.00 | 79 | 1010.4 |
| 20260906014508 | 27 | 72 | 0.0 | 0.0 | 0.00 | 0.00 | 0.00 | 77 | 1010.3 |
| 20260906013012 | 28 | 72 | 0.0 | 0.0 | 0.00 | 0.00 | 0.00 | 76 | 1010.6 |
| 20260906011509 | 28 | 72 | 0.0 | 6.4 | 0.00 | 0.00 | 0.00 | 72 | 1010.6 |
| 20260906010007 | 29 | 71 | 4.8 | 12.9 | 0.00 | 0.00 | 0.00 | 70 | 1010.5 |
| 20260906004506 | 28 | 63 | 4.8 | 8.0 | 0.00 | 0.00 | 0.00 | 72 | 1010.2 |
| 20260906003006 | 29 | 70 | 4.8 | 11.3 | 0.00 | 0.00 | 0.00 | 74 | 1010.1 |
| 20260906001505 | 30 | 301 | 0.0 | 3.2 | 0.00 | 0.00 | 0.00 | 69 | 1010.0 |
| 20260906000004 | 31 | 301 | 0.0 | 0.0 | 0.00 | 0.00 | 0.00 | 65 | 1010.1 |
| 20260905234506 | 33 | 301 | 0.0 | 0.0 | 0.00 | 0.00 | 0.00 | 60 | 1010.2 |
| 20260905233003 | 35 | 301 | 0.0 | 6.4 | 0.00 | 0.00 | 0.00 | 55 | 1010.1 |
| 20260905231503 | 35 | 281 | 1.6 | 14.5 | 0.00 | 0.00 | 0.00 | 52 | 1010.3 |
| 20260905230004 | 36 | 297 | 1.6 | 12.9 | 0.00 | 0.00 | 0.00 | 53 | 1010.2 |
| 20260905224504 | 36 | 257 | 0.0 | 6.4 | 0.00 | 0.00 | 0.00 | 50 | 1010.0 |
| 20260905223100 | 36 | 313 | 0.0 | 6.4 | 0.00 | 0.00 | 0.00 | 49 | 1010.2 |
| 20260905221605 | 36 | 274 | 0.0 | 9.7 | 0.00 | 0.00 | 0.00 | 49 | 1010.3 |
| 20260905220108 | 36 | 322 | 3.2 | 8.0 | 0.00 | 0.00 | 0.00 | 49 | 1010.3 |
| 20260905214557 | 36 | 285 | 1.6 | 9.7 | 0.00 | 0.00 | 0.00 | 49 | 1010.4 |
| 20260905213056 | 36 | 25 | 0.0 | 14.5 | 0.00 | 0.00 | 0.00 | 48 | 1010.4 |
| 20260905211627 | 36 | 303 | 8.0 | 12.9 | 0.00 | 0.00 | 0.00 | 49 | 1010.5 |
| 20260905210057 | 36 | 20 | 3.2 | 14.5 | 0.00 | 0.00 | 0.00 | 47 | 1010.4 |
| 20260905204557 | 36 | 293 | 8.0 | 12.9 | 0.00 | 0.00 | 0.00 | 48 | 1010.6 |
| 20260905203112 | 36 | 304 | 8.0 | 14.5 | 0.00 | 0.00 | 0.00 | 49 | 1010.7 |
| 20260905201551 | 36 | 290 | 4.8 | 6.4 | 0.00 | 0.00 | 0.00 | 51 | 1011.0 |
| 20260905200055 | 36 | 64 | 3.2 | 12.9 | 0.00 | 0.03 | 0.00 | 51 | 1011.1 |
| 20260905194544 | 36 | 274 | 4.8 | 14.5 | 0.00 | 0.03 | 0.00 | 49 | 1011.3 |
| 20260905193042 | 36 | 308 | 6.4 | 16.1 | 0.00 | 0.03 | 0.00 | 50 | 1011.5 |
| 20260905191539 | 36 | 332 | 0.0 | 12.9 | 0.00 | 0.03 | 0.00 | 54 | 1011.8 |
| 20260905190038 | 35 | 76 | 4.8 | 11.3 | 0.00 | 0.03 | 0.00 | 53 | 1012.1 |
| 20260905184534 | 35 | 245 | 1.6 | 6.4 | 0.00 | 0.03 | 0.00 | 58 | 1012.2 |
| 20260905183032 | 34 | 325 | 1.6 | 9.7 | 0.00 | 0.03 | 0.00 | 57 | 1012.5 |
| 20260905181529 | 35 | 278 | 1.6 | 12.9 | 0.00 | 0.03 | 0.00 | 56 | 1012.6 |
| 20260905180028 | 34 | 295 | 3.2 | 9.7 | 0.00 | 0.03 | 0.00 | 60 | 1012.8 |
| 20260905174534 | 35 | 295 | 0.0 | 11.3 | 0.00 | 0.03 | 0.00 | 57 | 1012.7 |
| 20260905173027 | 34 | 167 | 0.0 | 6.4 | 0.00 | 0.03 | 0.00 | 59 | 1012.8 |
| 20260905171534 | 33 | 151 | 3.2 | 8.0 | 0.00 | 0.03 | 0.00 | 61 | 1013.1 |
| 20260905170018 | 33 | 250 | 1.6 | 6.4 | 0.00 | 0.03 | 0.00 | 65 | 1013.3 |
| 20260905164513 | 32 | 11 | 0.0 | 6.4 | 0.00 | 0.03 | 0.00 | 64 | 1013.5 |
| 20260905163009 | 31 | 276 | 1.6 | 9.7 | 0.00 | 0.03 | 0.00 | 68 | 1013.8 |
| 20260905161506 | 31 | 317 | 0.0 | 9.7 | 0.00 | 0.03 | 0.00 | 70 | 1013.9 |
| 20260905160006 | 30 | 60 | 1.6 | 6.4 | 0.00 | 0.03 | 0.00 | 70 | 1014.2 |
| 20260905154602 | 29 | 322 | 1.6 | 9.7 | 0.00 | 0.03 | 0.00 | 73 | 1014.3 |
| 20260905153056 | 28 | 327 | 0.0 | 0.0 | 0.00 | 0.03 | 0.00 | 78 | 1014.2 |
| 20260905151602 | 27 | 272 | 0.0 | 0.0 | 0.00 | 0.03 | 0.00 | 80 | 1014.3 |
| 20260905150048 | 27 | 227 | 0.0 | 0.0 | 0.00 | 0.03 | 0.00 | 83 | 1014.3 |
| 20260905144544 | 26 | 218 | 0.0 | 0.0 | 0.00 | 0.03 | 0.00 | 85 | 1014.6 |
| 20260905143041 | 25 | 1 | 0.0 | 0.0 | 0.00 | 0.03 | 0.00 | 87 | 1014.6 |
| 20260905141542 | 24 | 1 | 0.0 | 0.0 | 0.00 | 0.03 | 0.00 | 88 | 1014.8 |
| 20260905140036 | 23 | 4 | 0.0 | 0.0 | 0.00 | 0.03 | 0.00 | 89 | 1014.7 |
| 20260905134533 | 23 | 180 | 0.0 | 0.0 | 0.00 | 0.03 | 0.00 | 89 | 1014.7 |
| 20260905133027 | 23 | 180 | 0.0 | 0.0 | 0.00 | 0.03 | 0.00 | 89 | 1014.7 |
| 20260905131527 | 22 | 5 | 0.0 | 0.0 | 0.00 | 0.03 | 0.00 | 89 | 1014.7 |
| 20260905130026 | 22 | 4 | 0.0 | 0.0 | 0.00 | 0.03 | 0.00 | 89 | 1014.7 |
| 20260905124536 | 22 | 4 | 0.0 | 0.0 | 0.00 | 0.03 | 0.00 | 89 | 1014.6 |